Time;durP1;ratioP1;P1;durP2;ratioP2;P2;SDS_P1;SDS_P2;PMS_P1;PMS_P2;Temp;Humidity;BMP_temperature;BMP_pressure;BME280_temperature;BME280_humidity;BME280_pressure;Samples;Min_cycle;Max_cycle;Signal;HPM_P1;HPM_P2
2023/07/31 00:01:56;;;;;;;4.38;2.20;;;16.80;76.40;;;;;;6246871;23;20665;-91
2023/07/31 00:04:23;;;;;;;2.60;2.00;;;16.70;76.60;;;;;;6220648;23;20179;-90
2023/07/31 00:09:34;;;;;;;3.00;1.92;;;16.50;78.30;;;;;;6247376;22;20169;-91
2023/07/31 00:12:01;;;;;;;3.53;2.05;;;16.50;79.20;;;;;;6220463;23;20177;-90
2023/07/31 00:14:28;;;;;;;4.28;2.30;;;16.50;78.40;;;;;;6247573;23;20176;-91
2023/07/31 00:16:55;;;;;;;3.75;2.00;;;16.40;79.80;;;;;;6219569;23;20173;-91
2023/07/31 00:19:22;;;;;;;3.15;2.13;;;16.40;79.60;;;;;;6220549;23;20227;-90
2023/07/31 00:21:49;;;;;;;7.25;2.20;;;16.30;82.10;;;;;;6220035;23;20513;-90
2023/07/31 00:24:18;;;;;;;4.60;2.03;;;16.10;81.70;;;;;;6221033;23;20501;-90
2023/07/31 00:26:45;;;;;;;3.25;2.08;;;16.00;83.50;;;;;;6195386;23;20189;-90
2023/07/31 00:29:12;;;;;;;4.28;2.30;;;15.90;85.90;;;;;;6195692;23;20204;-91
2023/07/31 00:31:39;;;;;;;3.03;2.20;;;15.80;88.60;;;;;;6246956;23;20170;-90
2023/07/31 00:34:06;;;;;;;2.50;2.20;;;15.70;89.10;;;;;;6247246;23;20173;-90
2023/07/31 00:36:33;;;;;;;4.13;2.20;;;15.70;90.10;;;;;;6195483;23;20482;-90
2023/07/31 00:39:00;;;;;;;3.28;1.95;;;15.70;90.20;;;;;;6220803;23;20498;-90
2023/07/31 00:41:28;;;;;;;3.25;2.25;;;15.70;90.20;;;;;;6247014;23;20173;-90
2023/07/31 00:43:55;;;;;;;4.15;2.33;;;15.70;90.30;;;;;;6246588;23;20519;-91
2023/07/31 00:46:22;;;;;;;5.22;2.20;;;15.70;90.20;;;;;;6247085;23;20449;-91
2023/07/31 00:48:49;;;;;;;3.67;1.92;;;15.70;90.20;;;;;;6220585;23;20619;-90
2023/07/31 00:51:17;;;;;;;5.03;2.50;;;15.60;89.80;;;;;;6218181;23;20209;-91
2023/07/31 00:53:54;;;;;;;5.80;2.30;;;15.50;90.10;;;;;;6247232;23;20184;-90
2023/07/31 00:56:21;;;;;;;3.50;2.30;;;15.50;90.30;;;;;;6246408;23;20671;-90
2023/07/31 00:58:49;;;;;;;3.10;2.10;;;15.50;90.60;;;;;;6220057;23;20510;-90
2023/07/31 01:01:16;;;;;;;5.38;2.15;;;15.50;91.20;;;;;;6220151;23;20220;-91
2023/07/31 01:03:44;;;;;;;4.68;2.22;;;15.60;90.60;;;;;;6246892;23;20464;-90
2023/07/31 01:06:18;;;;;;;3.33;2.20;;;15.70;91.00;;;;;;6246851;23;20175;-90
2023/07/31 01:11:41;;;;;;;5.28;2.13;;;15.80;90.20;;;;;;6245100;22;20165;-91
2023/07/31 01:14:10;;;;;;;4.38;2.20;;;15.90;89.40;;;;;;6195297;23;20174;-90
2023/07/31 01:16:37;;;;;;;4.53;1.90;;;15.90;89.70;;;;;;6246485;23;20347;-91
2023/07/31 01:22:20;;;;;;;2.92;1.75;;;16.00;89.00;;;;;;6245444;22;20165;-90
2023/07/31 01:33:17;;;;;;;7.07;2.10;;;16.10;89.00;;;;;;6245019;22;20180;-90
2023/07/31 01:35:47;;;;;;;4.13;2.30;;;16.20;89.10;;;;;;6220443;23;20619;-91
2023/07/31 01:38:14;;;;;;;4.07;2.08;;;16.30;87.80;;;;;;6245977;22;20240;-91
2023/07/31 01:40:43;;;;;;;3.22;2.10;;;16.20;86.80;;;;;;6246448;23;20173;-91
2023/07/31 01:43:11;;;;;;;3.55;2.10;;;16.00;87.10;;;;;;6220046;23;20173;-91
2023/07/31 01:45:39;;;;;;;5.15;2.00;;;16.00;87.70;;;;;;6220046;23;20181;-91
2023/07/31 01:48:06;;;;;;;4.32;2.30;;;16.00;88.40;;;;;;6194842;23;20556;-90
2023/07/31 01:50:33;;;;;;;4.40;2.03;;;15.90;87.70;;;;;;6219709;23;20193;-91
2023/07/31 01:53:00;;;;;;;2.53;2.15;;;15.80;88.30;;;;;;6219276;23;20247;-91
2023/07/31 01:55:26;;;;;;;4.85;1.90;;;15.80;88.70;;;;;;6246257;23;20169;-90
2023/07/31 01:57:54;;;;;;;3.47;2.03;;;15.70;89.00;;;;;;6219691;23;20623;-90
2023/07/31 02:00:30;;;;;;;4.28;2.40;;;15.70;89.70;;;;;;6222002;23;20217;-90
2023/07/31 02:03:01;;;;;;;2.47;1.73;;;15.80;89.70;;;;;;6246476;23;20587;-91
2023/07/31 02:05:28;;;;;;;2.10;1.90;;;15.90;89.00;;;;;;6246777;23;20179;-91
2023/07/31 02:07:55;;;;;;;2.95;1.90;;;15.90;89.10;;;;;;6219750;23;20564;-90
2023/07/31 02:10:22;;;;;;;4.72;2.28;;;16.00;89.60;;;;;;6246768;23;20173;-90
2023/07/31 02:12:49;;;;;;;3.20;2.13;;;16.00;89.60;;;;;;6219555;23;20235;-90
2023/07/31 02:15:16;;;;;;;5.03;2.30;;;16.00;90.30;;;;;;6246065;23;20631;-90
2023/07/31 02:20:25;;;;;;;3.38;2.03;;;16.00;89.50;;;;;;6246275;22;20169;-91
2023/07/31 02:22:52;;;;;;;6.28;2.20;;;16.20;89.80;;;;;;6246197;23;20502;-91
2023/07/31 02:25:19;;;;;;;4.07;1.90;;;16.30;88.30;;;;;;6246097;23;20176;-91
2023/07/31 02:27:46;;;;;;;3.58;2.20;;;16.40;86.60;;;;;;6245642;23;20646;-91
2023/07/31 02:30:13;;;;;;;4.35;1.98;;;16.40;85.90;;;;;;6245896;23;20180;-91
2023/07/31 02:32:40;;;;;;;2.83;2.05;;;16.40;85.40;;;;;;6194198;23;20231;-90
2023/07/31 02:35:09;;;;;;;3.45;2.60;;;16.40;85.40;;;;;;6246080;23;20176;-91
2023/07/31 02:37:38;;;;;;;3.25;2.58;;;16.30;86.20;;;;;;6219215;23;20174;-91
2023/07/31 02:40:05;;;;;;;3.83;2.28;;;16.30;87.00;;;;;;6245916;23;20174;-91
2023/07/31 02:42:32;;;;;;;4.10;2.10;;;16.20;86.30;;;;;;6219873;23;20177;-90
2023/07/31 02:44:59;;;;;;;4.22;2.10;;;16.10;87.00;;;;;;6246168;23;20168;-91
2023/07/31 02:47:26;;;;;;;4.43;2.22;;;16.00;87.20;;;;;;6193911;23;20189;-90
2023/07/31 02:49:53;;;;;;;2.22;1.90;;;16.10;88.50;;;;;;6245932;23;20174;-91
2023/07/31 02:52:22;;;;;;;3.33;2.42;;;16.10;86.80;;;;;;6245756;22;20201;-90
2023/07/31 02:54:48;;;;;;;6.20;2.00;;;16.10;87.40;;;;;;6246289;23;20180;-91
2023/07/31 02:57:16;;;;;;;4.35;2.35;;;16.10;88.40;;;;;;6245953;23;20169;-91
2023/07/31 02:59:43;;;;;;;3.58;2.10;;;15.90;89.00;;;;;;6219129;23;20177;-91
2023/07/31 03:02:10;;;;;;;2.92;2.42;;;15.80;89.70;;;;;;6245655;23;20522;-91
2023/07/31 03:04:37;;;;;;;4.50;2.70;;;15.60;89.70;;;;;;6246239;23;20474;-91
2023/07/31 03:09:47;;;;;;;4.63;2.42;;;15.50;91.20;;;;;;6244704;22;20175;-90
2023/07/31 03:14:55;;;;;;;4.10;2.05;;;15.30;91.50;;;;;;6221036;23;20161;-91
2023/07/31 03:17:22;;;;;;;2.85;2.22;;;15.30;91.50;;;;;;6219511;23;20192;-91
2023/07/31 03:19:49;;;;;;;3.00;2.25;;;15.30;91.50;;;;;;6246041;23;20174;-91
2023/07/31 03:22:16;;;;;;;3.63;2.08;;;15.30;91.50;;;;;;6246137;23;20176;-90
2023/07/31 03:24:42;;;;;;;5.85;2.30;;;15.50;91.60;;;;;;6219153;23;20698;-90
2023/07/31 03:29:52;;;;;;;4.15;2.42;;;15.30;91.60;;;;;;6241273;22;20170;-91
2023/07/31 03:32:19;;;;;;;2.97;2.10;;;15.20;91.50;;;;;;6244590;23;20173;-90
2023/07/31 03:34:45;;;;;;;4.95;2.80;;;15.00;92.10;;;;;;6247346;23;20260;-91
2023/07/31 03:37:12;;;;;;;3.70;2.20;;;15.00;92.70;;;;;;6247238;23;20173;-91
2023/07/31 03:39:39;;;;;;;4.95;2.20;;;14.90;93.00;;;;;;6247103;22;20180;-91
2023/07/31 03:42:07;;;;;;;4.30;2.50;;;14.90;93.20;;;;;;6220705;23;20170;-91
2023/07/31 03:47:24;;;;;;;2.80;2.50;;;14.80;93.70;;;;;;6223360;23;20173;-91
2023/07/31 03:49:50;;;;;;;4.38;2.20;;;14.80;93.80;;;;;;6220077;23;20176;-92
2023/07/31 03:52:17;;;;;;;4.93;2.55;;;14.70;93.90;;;;;;6219904;23;20208;-90
2023/07/31 03:54:45;;;;;;;5.35;2.50;;;14.70;94.10;;;;;;6247247;22;20180;-91
2023/07/31 03:57:12;;;;;;;5.80;2.40;;;14.70;94.10;;;;;;6220945;23;20223;-91
2023/07/31 03:59:39;;;;;;;2.80;2.38;;;14.60;94.40;;;;;;6247015;23;20177;-91
2023/07/31 04:02:08;;;;;;;3.22;2.38;;;14.60;94.80;;;;;;6220647;23;20231;-91
2023/07/31 04:04:34;;;;;;;3.95;2.60;;;14.70;95.00;;;;;;6246588;22;20898;-91
2023/07/31 04:07:01;;;;;;;6.30;2.65;;;14.70;95.10;;;;;;6220973;23;20174;-91
2023/07/31 04:09:28;;;;;;;3.55;2.63;;;14.80;95.10;;;;;;6246620;23;20503;-91
2023/07/31 04:11:55;;;;;;;3.80;2.80;;;14.90;95.20;;;;;;6246758;22;20638;-90
2023/07/31 04:14:22;;;;;;;5.03;2.40;;;14.90;94.70;;;;;;6220731;23;20172;-91
2023/07/31 04:16:49;;;;;;;6.07;2.60;;;14.90;94.50;;;;;;6220327;23;20248;-91
2023/07/31 04:19:17;;;;;;;2.50;2.25;;;14.90;94.60;;;;;;6247231;23;20177;-91
2023/07/31 04:21:44;;;;;;;5.43;2.60;;;14.90;94.70;;;;;;6246755;23;20253;-91
2023/07/31 04:24:11;;;;;;;4.65;2.70;;;15.00;94.90;;;;;;6247152;23;20173;-91
2023/07/31 04:26:38;;;;;;;4.68;2.40;;;15.00;94.70;;;;;;6220419;23;20169;-91
2023/07/31 04:29:05;;;;;;;3.85;2.50;;;15.00;94.60;;;;;;6246894;23;20200;-91
2023/07/31 04:31:32;;;;;;;3.72;2.55;;;15.00;94.80;;;;;;6220091;23;20170;-91
2023/07/31 04:33:59;;;;;;;5.75;2.53;;;15.10;95.10;;;;;;6220392;23;20169;-91
2023/07/31 04:36:27;;;;;;;5.47;2.58;;;15.10;94.90;;;;;;6220706;23;20175;-91
2023/07/31 04:38:54;;;;;;;4.53;2.45;;;15.10;94.90;;;;;;6219815;23;20170;-91
2023/07/31 04:41:21;;;;;;;4.32;2.80;;;15.10;94.70;;;;;;6245872;22;20499;-91
2023/07/31 04:43:48;;;;;;;4.78;2.65;;;15.10;94.50;;;;;;6245808;22;20646;-91
2023/07/31 04:46:15;;;;;;;4.30;2.70;;;15.10;94.60;;;;;;6219999;23;20177;-91
2023/07/31 04:48:42;;;;;;;3.83;2.47;;;15.10;94.80;;;;;;6220021;23;20193;-90
2023/07/31 04:51:09;;;;;;;4.18;2.85;;;15.20;94.50;;;;;;6246030;22;20201;-91
2023/07/31 04:53:38;;;;;;;3.00;2.70;;;15.20;94.60;;;;;;6219501;23;20528;-91
2023/07/31 04:56:05;;;;;;;7.40;2.97;;;15.20;94.60;;;;;;6246418;23;20176;-91
2023/07/31 04:58:32;;;;;;;5.05;2.58;;;15.20;94.60;;;;;;6245931;23;20177;-91
2023/07/31 05:00:58;;;;;;;4.57;2.60;;;15.20;94.90;;;;;;6194775;23;20240;-91
2023/07/31 05:03:25;;;;;;;5.35;2.50;;;15.20;95.10;;;;;;6219962;23;20246;-91
2023/07/31 05:05:52;;;;;;;5.95;2.47;;;15.30;95.50;;;;;;6246291;23;20173;-91
2023/07/31 05:08:19;;;;;;;3.03;2.50;;;15.30;95.40;;;;;;6219860;23;20648;-91
2023/07/31 05:13:28;;;;;;;3.97;2.60;;;15.50;94.90;;;;;;6244929;22;20595;-90
2023/07/31 05:15:55;;;;;;;4.63;2.60;;;15.80;94.20;;;;;;6245715;22;20169;-91
2023/07/31 05:18:22;;;;;;;6.05;2.60;;;15.90;93.80;;;;;;6246685;23;20626;-90
2023/07/31 05:20:49;;;;;;;6.03;2.90;;;16.00;93.10;;;;;;6220389;23;20169;-91
2023/07/31 05:23:16;;;;;;;3.85;2.80;;;16.20;92.90;;;;;;6246974;23;20506;-91
2023/07/31 05:25:43;;;;;;;4.00;2.45;;;16.40;92.40;;;;;;6220008;23;20181;-91
2023/07/31 05:28:11;;;;;;;3.50;2.60;;;16.50;92.10;;;;;;6219872;23;20188;-90
2023/07/31 05:30:38;;;;;;;5.10;2.50;;;16.60;91.90;;;;;;6246159;23;20192;-90
2023/07/31 05:33:06;;;;;;;4.55;2.63;;;16.80;91.70;;;;;;6245866;23;20173;-91
2023/07/31 05:35:53;;;;;;;3.03;2.63;;;17.00;90.90;;;;;;6245580;23;20235;-90
2023/07/31 05:38:20;;;;;;;5.38;2.58;;;17.30;88.60;;;;;;6245459;23;20176;-91
2023/07/31 05:40:47;;;;;;;3.78;2.70;;;17.50;85.70;;;;;;6220754;23;20252;-92
2023/07/31 05:43:15;;;;;;;3.15;2.20;;;17.70;83.30;;;;;;6223284;23;20175;-93
2023/07/31 05:45:43;;;;;;;6.50;2.40;;;17.80;82.20;;;;;;6223085;23;20176;-92
2023/07/31 05:48:10;;;;;;;4.00;2.20;;;17.80;81.10;;;;;;6247346;23;20179;-92
2023/07/31 05:50:39;;;;;;;5.65;2.47;;;18.00;80.70;;;;;;6247220;22;20201;-93
2023/07/31 05:53:06;;;;;;;3.22;2.40;;;18.10;80.30;;;;;;6198495;23;20479;-93
2023/07/31 05:58:15;;;;;;;4.20;2.50;;;18.40;79.40;;;;;;6246183;23;20169;-93
2023/07/31 06:00:42;;;;;;;3.88;2.55;;;18.40;75.20;;;;;;6245423;23;20188;-94
2023/07/31 06:03:09;;;;;;;3.05;2.40;;;18.60;74.40;;;;;;6248718;23;20173;-92
2023/07/31 06:05:35;;;;;;;2.88;2.10;;;18.70;71.10;;;;;;6247556;23;20169;-92
2023/07/31 06:08:02;;;;;;;3.40;2.50;;;18.70;70.90;;;;;;6196342;23;20204;-92
2023/07/31 06:13:10;;;;;;;2.75;2.20;;;18.70;73.00;;;;;;6243612;22;20552;-93
2023/07/31 06:15:38;;;;;;;3.72;2.28;;;18.80;67.00;;;;;;6220208;23;20230;-93
2023/07/31 06:18:07;;;;;;;2.53;2.28;;;18.80;69.30;;;;;;6248236;23;20257;-92
2023/07/31 06:20:34;;;;;;;3.75;2.40;;;18.80;68.50;;;;;;6249335;23;20879;-93
2023/07/31 06:23:01;;;;;;;3.70;2.05;;;18.90;70.90;;;;;;6233370;23;20173;-92
2023/07/31 06:25:28;;;;;;;2.63;2.00;;;19.00;67.70;;;;;;6248754;23;20169;-93
2023/07/31 06:28:02;;;;;;;3.97;2.28;;;19.20;66.10;;;;;;6249688;23;20722;-92
2023/07/31 06:30:29;;;;;;;4.35;2.40;;;19.20;63.90;;;;;;6254481;23;20564;-94
2023/07/31 06:35:38;;;;;;;3.38;2.10;;;19.20;60.60;;;;;;6255093;22;20177;-93
2023/07/31 06:38:05;;;;;;;4.10;2.20;;;19.40;55.40;;;;;;6256298;23;20612;-94
2023/07/31 06:40:32;;;;;;;2.92;2.40;;;19.40;57.20;;;;;;6254078;23;20267;-94
2023/07/31 06:42:59;;;;;;;3.38;2.20;;;19.40;58.40;;;;;;6252853;23;20502;-94
2023/07/31 06:45:25;;;;;;;4.97;2.08;;;19.40;55.30;;;;;;6252485;23;20181;-93
2023/07/31 06:47:52;;;;;;;3.85;2.20;;;19.40;55.40;;;;;;6252770;23;20177;-93
2023/07/31 06:50:21;;;;;;;3.38;2.13;;;19.30;57.80;;;;;;6226431;22;20258;-93
2023/07/31 06:52:47;;;;;;;4.43;2.25;;;19.50;55.40;;;;;;6253822;23;20173;-93
2023/07/31 06:55:19;;;;;;;7.53;5.43;;;19.60;55.50;;;;;;6251613;23;20192;-93
2023/07/31 06:57:45;;;;;;;48.15;41.10;;;19.70;55.70;;;;;;6246731;22;20173;-93
2023/07/31 07:00:13;;;;;;;16.48;12.75;;;19.70;55.60;;;;;;6226578;23;20187;-93
2023/07/31 07:02:40;;;;;;;3.28;2.45;;;19.80;51.10;;;;;;6225792;23;20239;-93
2023/07/31 07:10:31;;;;;;;4.43;2.15;;;20.10;48.80;;;;;;6227682;23;20204;-93
2023/07/31 07:12:58;;;;;;;6.93;3.90;;;20.50;44.50;;;;;;6227997;23;20560;-94
2023/07/31 07:15:25;;;;;;;103.78;92.90;;;20.50;44.80;;;;;;6254208;23;20173;-93
2023/07/31 07:17:52;;;;;;;28.52;25.23;;;20.30;48.10;;;;;;6254812;23;20179;-94
2023/07/31 07:20:20;;;;;;;3.83;2.42;;;20.20;48.30;;;;;;6255559;23;20495;-93
2023/07/31 07:25:48;;;;;;;4.07;3.17;;;20.30;47.40;;;;;;6253197;22;20603;-93
2023/07/31 07:28:15;;;;;;;2.65;2.10;;;20.20;45.60;;;;;;6248721;23;20204;-93
2023/07/31 07:30:42;;;;;;;16.42;12.20;;;20.30;47.20;;;;;;6254437;22;20189;-93
2023/07/31 07:33:09;;;;;;;19.83;17.35;;;20.30;46.50;;;;;;6203380;23;20177;-93
2023/07/31 07:35:36;;;;;;;6.75;6.05;;;20.50;45.40;;;;;;6227405;23;20181;-93
2023/07/31 07:40:50;;;;;;;4.20;3.63;;;20.80;41.90;;;;;;6217463;23;20173;-93
2023/07/31 07:43:34;;;;;;;5.65;3.78;;;20.70;41.20;;;;;;6205066;22;20233;-93
2023/07/31 07:46:01;;;;;;;3.45;1.90;;;20.70;39.40;;;;;;6223624;23;20207;-94
2023/07/31 07:48:28;;;;;;;2.97;2.67;;;20.70;40.50;;;;;;6231214;23;20181;-93
2023/07/31 07:50:57;;;;;;;3.30;2.08;;;20.70;42.50;;;;;;6253467;22;20197;-89
2023/07/31 07:53:24;;;;;;;8.05;6.43;;;20.80;41.60;;;;;;6245814;23;20169;-90
2023/07/31 07:55:52;;;;;;;21.25;17.60;;;21.00;39.90;;;;;;6220939;23;20177;-89
2023/07/31 07:58:19;;;;;;;6.43;3.83;;;21.10;37.50;;;;;;6255782;22;20231;-89
2023/07/31 08:00:51;;;;;;;3.70;2.20;;;21.40;37.50;;;;;;6228454;23;20256;-91
2023/07/31 08:03:18;;;;;;;3.78;2.70;;;21.60;33.50;;;;;;6223896;23;20158;-90
2023/07/31 08:08:20;;;;;;;3.92;2.08;;;21.60;33.40;;;;;;6249174;22;20204;-92
2023/07/31 08:10:47;;;;;;;5.18;2.42;;;21.50;35.90;;;;;;6226008;23;20256;-92
2023/07/31 08:16:08;;;;;;;2.78;2.13;;;21.60;33.40;;;;;;6243460;22;20197;-88
2023/07/31 08:18:35;;;;;;;3.78;2.10;;;21.70;32.80;;;;;;6219923;23;20204;-89
2023/07/31 08:21:03;;;;;;;5.80;2.38;;;21.70;33.50;;;;;;6218975;23;20181;-89
2023/07/31 08:23:30;;;;;;;2.58;2.38;;;21.80;33.60;;;;;;6246190;23;20896;-88
2023/07/31 08:25:57;;;;;;;4.93;2.20;;;22.00;32.10;;;;;;6246127;23;20954;-89
2023/07/31 08:28:25;;;;;;;3.70;2.20;;;22.40;28.00;;;;;;6218426;23;20173;-89
2023/07/31 08:30:52;;;;;;;4.57;2.83;;;22.80;26.40;;;;;;6218498;23;20193;-89
2023/07/31 08:33:19;;;;;;;2.72;2.20;;;23.00;27.10;;;;;;6244544;23;20852;-88
2023/07/31 08:35:46;;;;;;;5.18;2.00;;;23.00;28.00;;;;;;6245657;23;20180;-88
2023/07/31 08:38:13;;;;;;;5.45;2.20;;;22.80;27.00;;;;;;6245481;23;20173;-89
2023/07/31 08:40:40;;;;;;;3.80;2.00;;;22.50;25.20;;;;;;6217684;23;20179;-92
2023/07/31 08:43:10;;;;;;;6.65;2.15;;;22.50;27.10;;;;;;6245771;23;20201;-89
2023/07/31 08:45:43;;;;;;;4.22;2.22;;;22.40;27.20;;;;;;6244441;22;20173;-88
2023/07/31 08:48:13;;;;;;;4.40;2.25;;;22.30;26.50;;;;;;6245323;23;20252;-89
2023/07/31 08:50:40;;;;;;;6.18;1.90;;;22.20;27.50;;;;;;6218865;23;20201;-91
2023/07/31 08:53:07;;;;;;;3.83;2.00;;;21.90;29.60;;;;;;6219301;23;20185;-88
2023/07/31 08:55:38;;;;;;;3.78;2.35;;;21.60;28.50;;;;;;6252438;23;20173;-89
2023/07/31 09:23:13;;;;;;;4.68;2.58;;;22.40;33.60;;;;;;6245532;22;20204;-93
2023/07/31 09:38:40;;;;;;;3.35;2.22;;;25.90;17.60;;;;;;6249403;22;20228;-94
2023/07/31 09:41:08;;;;;;;6.57;2.45;;;25.90;17.00;;;;;;6249060;23;20161;-93
2023/07/31 09:43:35;;;;;;;3.05;2.25;;;25.70;15.90;;;;;;6249668;23;20173;-93
2023/07/31 09:46:02;;;;;;;3.92;2.20;;;25.40;17.50;;;;;;6248030;23;20183;-92
2023/07/31 09:48:30;;;;;;;4.88;2.05;;;25.40;20.00;;;;;;6245833;23;20204;-92
2023/07/31 09:50:57;;;;;;;2.60;2.40;;;25.70;16.80;;;;;;6250529;22;20260;-93
2023/07/31 09:53:31;;;;;;;3.33;2.38;;;26.60;16.20;;;;;;6246610;23;20193;-93
2023/07/31 09:58:42;;;;;;;4.35;2.40;;;27.80;14.80;;;;;;6244368;23;20177;-93
2023/07/31 10:01:10;;;;;;;4.53;2.47;;;28.00;13.00;;;;;;6249527;23;20169;-92
2023/07/31 10:03:39;;;;;;;4.50;2.42;;;27.70;13.40;;;;;;6251783;22;20548;-94
2023/07/31 10:06:10;;;;;;;3.72;2.65;;;27.90;12.80;;;;;;6248839;23;20179;-90
2023/07/31 10:08:38;;;;;;;4.43;2.72;;;27.80;12.90;;;;;;6243115;23;20163;-90
2023/07/31 10:11:09;;;;;;;5.28;2.67;;;28.00;11.90;;;;;;6241950;23;20200;-90
2023/07/31 10:13:36;;;;;;;2.97;2.40;;;27.80;12.10;;;;;;6242942;23;20183;-92
2023/07/31 10:16:03;;;;;;;3.75;2.50;;;28.50;11.20;;;;;;6244223;23;20200;-89
2023/07/31 10:18:31;;;;;;;4.95;2.53;;;28.20;13.20;;;;;;6242588;23;20510;-90
2023/07/31 10:20:58;;;;;;;2.92;2.60;;;28.20;11.50;;;;;;6242752;23;20175;-90
2023/07/31 10:23:25;;;;;;;2.85;2.47;;;28.90;10.80;;;;;;6221455;23;20192;-92
2023/07/31 10:25:54;;;;;;;3.25;2.50;;;29.10;9.20;;;;;;6246238;23;20246;-93
2023/07/31 10:31:37;;;;;;;4.20;3.00;;;29.20;12.30;;;;;;6233408;23;20502;-91
2023/07/31 10:34:25;;;;;;;3.92;2.80;;;29.00;9.60;;;;;;6247692;22;20499;-91
2023/07/31 10:37:26;;;;;;;3.55;2.85;;;28.70;9.40;;;;;;6245713;23;20173;-90
2023/07/31 10:45:58;;;;;;;4.72;2.65;;;26.80;13.20;;;;;;6265556;22;20540;-92
2023/07/31 10:48:25;;;;;;;3.50;2.53;;;26.10;14.70;;;;;;6229992;23;20177;-90
2023/07/31 10:50:55;;;;;;;2.85;2.00;;;25.60;14.40;;;;;;6252426;22;20261;-91
2023/07/31 10:53:26;;;;;;;7.57;2.50;;;25.10;16.10;;;;;;6228901;23;20173;-92
2023/07/31 10:55:53;;;;;;;4.68;2.35;;;24.90;17.10;;;;;;6250825;23;20165;-88
2023/07/31 10:58:22;;;;;;;4.47;2.50;;;24.60;15.40;;;;;;6223560;23;20175;-90
2023/07/31 11:00:49;;;;;;;3.45;2.60;;;24.60;15.50;;;;;;6251140;23;20623;-89
2023/07/31 11:26:55;;;;;;;3.28;2.25;;;24.20;17.10;;;;;;6268210;22;20228;-92
2023/07/31 15:38:55;;;;;;;3.45;2.75;;;24.50;16.50;;;;;;6205729;22;20208;-91
2023/07/31 15:41:22;;;;;;;3.88;2.60;;;24.30;15.90;;;;;;6244877;22;20211;-92
2023/07/31 15:47:11;;;;;;;3.22;2.78;;;24.20;16.70;;;;;;6273913;23;20177;-92
2023/07/31 15:49:38;;;;;;;5.03;3.05;;;24.00;17.30;;;;;;6251749;23;20157;-94
2023/07/31 15:52:07;;;;;;;6.10;3.40;;;24.00;17.50;;;;;;6253597;23;20201;-93
2023/07/31 15:54:35;;;;;;;6.88;3.40;;;23.90;16.70;;;;;;6250624;23;20189;-94
2023/07/31 15:57:02;;;;;;;4.70;3.45;;;23.80;17.70;;;;;;6181527;23;20173;-89
2023/07/31 15:59:29;;;;;;;9.02;3.33;;;23.90;17.60;;;;;;6224776;23;20173;-90
